Nearby METAR Reports

 

KMFD - Mansfield, Ohio, USA
Distance from station: E 12mi, 20km
Updated: Fri, 22-Nov-2019 6:52am EST
Overcast
Overcast
 Wind from WNW
Wind: WNW 13 mph , 20 km/h, Gust: 23 mph , 37 km/h
Temperature: 39°F , 4°C
Wind Chill: 31°F , -1°C
Dew Point: 36°F , 2°C
Humidity: 87%
Barometer: 29.97 inHg , 1014.9 hPa
Clouds: Overcast
Visibility: 10 miles , 16 km
Cloud details: Partly cloudy 1000 ft
Overcast 2000 ft
2019/11/22 11:52 KMFD 221152Z 30011G20KT 10SM SCT010 OVC020 04/02 A2997 RMK AO2 SLP152 60006 70012 T00390022 10100 20039 51021
KMNN - Marion, Ohio, USA
Distance from station: SW 20mi, 33km
Updated: Fri, 22-Nov-2019 6:53am EST
Overcast
Overcast
 Wind from NW
Wind: NW 15 mph , 24 km/h, Gust: 22 mph , 35 km/h
Temperature: 39°F , 4°C
Wind Chill: 31°F , -1°C
Dew Point: 36°F , 2°C
Humidity: 87%
Barometer: 30.00 inHg , 1015.9 hPa
Clouds: Overcast
Visibility: 10 miles , 16 km
Cloud details: Mostly cloudy 1700 ft
Overcast 2300 ft
2019/11/22 11:53 KMNN 221153Z AUTO 32013G19KT 10SM BKN017 OVC023 04/02 A3000 RMK AO2 SLP162 60001 70005 T00440017 10094 20044 53027
 
K4I3 - Mt Vernon/Knox, Ohio, USA
Distance from station: SSE 33mi, 54km
Updated: Wed, 20-Nov-2019 9:42am EST
NOT Current
Clear
Clear
 Wind from N
Wind: N 6 mph , 9 km/h
Temperature: 39°F , 4°C
Wind Chill: 35°F , 2°C
Dew Point: 32°F , 0°C
Humidity: 75%
Barometer: 30.19 inHg , 1022.4 hPa
Clouds: Clear
Visibility: 7 miles , 11 km
2019/11/20 14:42 K4I3 201442Z AUTO 35005KT 7SM CLR 04/00 A3019 RMK AO2
KDLZ - Delaware, Ohio, USA
Distance from station: SSW 40mi, 64km
Updated: Fri, 22-Nov-2019 7:15am EST
Overcast
Overcast
 Wind from NW
Wind: NW 14 mph , 22 km/h, Gust: 21 mph , 33 km/h
Temperature: 39°F , 4°C
Wind Chill: 31°F , -1°C
Dew Point: 36°F , 2°C
Humidity: 87%
Barometer: 30.02 inHg , 1016.6 hPa
Clouds: Overcast
Visibility: 10 miles , 16 km
Cloud details: Overcast 2200 ft
2019/11/22 12:15 KDLZ 221215Z AUTO 32012G18KT 10SM OVC022 04/02 A3002 RMK AO2
 
KBJJ - Wooster, Ohio, USA
Distance from station: E 46mi, 73km
Updated: Fri, 22-Nov-2019 6:56am EST
Overcast
Overcast
 Wind from NW
Wind: NW 10 mph , 17 km/h
Temperature: 39°F , 4°C
Wind Chill: 32°F , 0°C
Dew Point: 37°F , 3°C
Humidity: 93%
Barometer: 29.95 inHg , 1014.2 hPa
Clouds: Overcast
Visibility: 10 miles , 16 km
Cloud details: Partly cloudy 1300 ft
Mostly cloudy 1800 ft
Overcast 3000 ft
2019/11/22 11:56 KBJJ 221156Z AUTO 32009KT 10SM SCT013 BKN018 OVC030 04/03 A2995 RMK AO2 RAB05E36 SLP148 P0000 60007 70009 T00390028 10100 20039 53025
KLPR - Lorain/Elyria, Ohio, USA
Distance from station: NE 49mi, 79km
Updated: Fri, 22-Nov-2019 6:53am EST
Overcast
Overcast
 Wind from NW
Wind: NW 13 mph , 20 km/h, Gust: 21 mph , 33 km/h
Temperature: 39°F , 4°C
Wind Chill: 31°F , -1°C
Dew Point: 30°F , -1°C
Humidity: 70%
Barometer: 29.98 inHg , 1015.2 hPa
Clouds: Overcast
Visibility: 10 miles , 16 km
Cloud details: Partly cloudy 2000 ft
Overcast 2900 ft
2019/11/22 11:53 KLPR 221153Z AUTO 32011G18KT 10SM SCT020 OVC029 04/M01 A2998 RMK AO2 PK WND 32026/1124 PRESRR SLP156 60001 70003 T00441006 10106 20044 53029